Time;durP1;ratioP1;P1;durP2;ratioP2;P2;SDS_P1;SDS_P2;PMS_P1;PMS_P2;Temp;Humidity;BMP_temperature;BMP_pressure;BME280_temperature;BME280_humidity;BME280_pressure;Samples;Min_cycle;Max_cycle;Signal;HPM_P1;HPM_P2
2022/04/12 00:00:55;;;;;;;7.07;2.80;;;8.60;65.00;;;;;;5093615;28;20020;-69
2022/04/12 00:03:20;;;;;;;9.75;4.07;;;8.60;65.10;;;;;;5088576;28;20432;-70
2022/04/12 00:05:46;;;;;;;6.78;3.70;;;8.50;65.00;;;;;;5079546;28;20016;-70
2022/04/12 00:08:11;;;;;;;7.20;3.17;;;8.50;65.30;;;;;;5072985;28;20132;-70
2022/04/12 00:10:37;;;;;;;7.35;3.70;;;8.50;65.60;;;;;;5086411;28;20042;-70
2022/04/12 00:13:04;;;;;;;6.30;3.20;;;8.40;65.50;;;;;;5074116;28;20024;-70
2022/04/12 00:15:29;;;;;;;7.07;2.92;;;8.40;65.60;;;;;;5093434;28;20048;-70
2022/04/12 00:20:40;;;;;;;6.97;3.40;;;8.40;65.60;;;;;;5093877;28;20379;-70
2022/04/12 00:23:06;;;;;;;7.05;3.80;;;8.30;65.90;;;;;;5091492;28;20107;-70
2022/04/12 00:25:31;;;;;;;8.55;3.20;;;8.40;66.20;;;;;;5092481;28;20112;-70
2022/04/12 00:27:59;;;;;;;5.63;2.70;;;8.40;66.30;;;;;;5084566;28;20020;-70
2022/04/12 00:30:25;;;;;;;7.30;3.80;;;8.30;66.30;;;;;;5093404;28;20058;-70
2022/04/12 00:32:52;;;;;;;5.53;3.05;;;8.30;66.70;;;;;;5091589;28;20412;-70
2022/04/12 00:35:19;;;;;;;6.38;2.80;;;8.30;66.80;;;;;;5092075;28;20112;-70
2022/04/12 00:37:45;;;;;;;5.32;3.00;;;8.30;67.00;;;;;;5090995;28;20032;-70
2022/04/12 00:40:12;;;;;;;5.38;3.10;;;8.30;67.10;;;;;;5088538;28;20107;-70
2022/04/12 00:42:37;;;;;;;8.10;3.40;;;8.30;67.30;;;;;;5083355;28;20024;-70
2022/04/12 00:45:04;;;;;;;8.50;3.42;;;8.30;67.40;;;;;;5091647;28;20455;-70
2022/04/12 00:47:29;;;;;;;6.40;3.15;;;8.30;67.60;;;;;;5091648;28;20482;-69
2022/04/12 00:49:55;;;;;;;6.28;3.45;;;8.20;67.60;;;;;;5092681;28;20066;-70
2022/04/12 00:52:21;;;;;;;6.78;3.25;;;8.20;67.90;;;;;;5090780;28;20020;-69
2022/04/12 00:54:48;;;;;;;9.90;3.30;;;8.20;68.00;;;;;;5092900;28;20050;-69
2022/04/12 00:57:14;;;;;;;6.88;3.70;;;8.10;68.20;;;;;;5091646;28;20126;-69
2022/04/12 00:59:43;;;;;;;6.30;3.63;;;8.10;68.40;;;;;;5092985;28;20025;-70
2022/04/12 01:02:08;;;;;;;10.27;3.50;;;8.10;68.30;;;;;;5067383;28;20063;-70
2022/04/12 01:04:34;;;;;;;7.55;3.30;;;8.00;68.20;;;;;;5080885;28;20052;-70
2022/04/12 01:07:01;;;;;;;7.03;3.10;;;8.00;68.50;;;;;;5075870;28;20410;-69
2022/04/12 01:09:27;;;;;;;8.02;3.75;;;8.00;68.60;;;;;;5091144;28;20055;-69
2022/04/12 01:11:53;;;;;;;6.65;3.67;;;8.00;68.70;;;;;;5070053;28;20417;-70
2022/04/12 01:14:19;;;;;;;8.35;3.25;;;7.90;68.60;;;;;;5077283;28;20036;-71
2022/04/12 01:16:45;;;;;;;5.93;3.45;;;7.90;68.60;;;;;;5090803;28;20031;-70
2022/04/12 01:19:10;;;;;;;7.85;3.17;;;7.80;68.60;;;;;;5091959;28;20055;-70
2022/04/12 01:21:42;;;;;;;8.07;4.15;;;7.80;68.70;;;;;;5090703;28;20073;-70
2022/04/12 01:24:08;;;;;;;8.80;3.65;;;7.80;68.80;;;;;;5091808;28;20507;-71
2022/04/12 01:26:34;;;;;;;7.95;3.50;;;7.80;69.00;;;;;;5090104;28;20042;-70
2022/04/12 01:28:59;;;;;;;6.43;3.63;;;7.70;69.00;;;;;;5072787;28;20032;-70
2022/04/12 01:31:26;;;;;;;6.18;3.33;;;7.70;69.00;;;;;;5083219;28;20028;-70
2022/04/12 01:33:52;;;;;;;5.30;3.40;;;7.70;69.40;;;;;;5088871;28;20055;-70
2022/04/12 01:36:18;;;;;;;8.05;3.58;;;7.60;69.40;;;;;;5090629;28;20034;-70
2022/04/12 01:38:43;;;;;;;7.22;4.13;;;7.60;69.50;;;;;;5089853;28;20040;-70
2022/04/12 01:41:09;;;;;;;8.18;3.30;;;7.60;69.50;;;;;;5086154;28;20068;-70
2022/04/12 01:43:35;;;;;;;7.47;3.20;;;7.50;69.50;;;;;;5090146;28;20028;-70
2022/04/12 01:46:00;;;;;;;5.30;3.60;;;7.50;69.60;;;;;;5090482;28;20077;-70
2022/04/12 01:48:26;;;;;;;6.28;3.17;;;7.50;69.90;;;;;;5074441;28;20499;-70
2022/04/12 01:50:51;;;;;;;7.07;3.20;;;7.50;70.10;;;;;;5078333;28;20020;-71
2022/04/12 01:53:17;;;;;;;6.72;3.00;;;7.50;70.30;;;;;;5062260;28;20031;-70
2022/04/12 01:55:42;;;;;;;8.57;3.35;;;7.50;70.50;;;;;;5078419;28;20024;-71
2022/04/12 01:58:08;;;;;;;7.38;3.10;;;7.50;70.70;;;;;;5089517;28;20434;-71
2022/04/12 02:00:36;;;;;;;6.13;3.28;;;7.50;70.90;;;;;;5091481;28;20073;-70
2022/04/12 02:03:04;;;;;;;6.18;3.42;;;7.50;71.10;;;;;;5088476;28;20102;-71
2022/04/12 02:05:30;;;;;;;10.00;4.25;;;7.50;71.00;;;;;;5091204;28;20024;-70
2022/04/12 02:07:55;;;;;;;5.97;3.28;;;7.50;71.10;;;;;;5088806;28;20048;-71
2022/04/12 02:10:22;;;;;;;6.90;4.50;;;7.40;71.20;;;;;;5091316;28;20016;-70
2022/04/12 02:12:49;;;;;;;8.10;4.10;;;7.50;71.50;;;;;;5089394;28;20028;-71
2022/04/12 02:15:14;;;;;;;6.72;3.72;;;7.40;71.50;;;;;;5091009;28;20509;-71
2022/04/12 02:17:40;;;;;;;6.35;3.78;;;7.40;71.70;;;;;;5085184;28;20493;-71
2022/04/12 02:20:05;;;;;;;7.03;4.00;;;7.30;71.70;;;;;;5070837;28;20024;-70
2022/04/12 02:22:31;;;;;;;7.72;3.85;;;7.30;71.90;;;;;;5087886;28;20021;-71
2022/04/12 02:24:57;;;;;;;8.02;3.75;;;7.30;72.10;;;;;;5091487;28;20068;-71
2022/04/12 02:27:22;;;;;;;8.52;4.32;;;7.20;72.10;;;;;;5088557;28;20028;-71
2022/04/12 02:29:48;;;;;;;6.75;3.75;;;7.20;72.10;;;;;;5073821;28;20021;-71
2022/04/12 02:32:13;;;;;;;8.82;4.45;;;7.10;72.20;;;;;;5084699;28;20513;-71
2022/04/12 02:34:39;;;;;;;7.53;4.30;;;7.10;72.20;;;;;;5087435;28;20035;-71
2022/04/12 02:37:08;;;;;;;6.75;3.97;;;6.90;72.30;;;;;;5089379;28;20031;-71
2022/04/12 02:39:33;;;;;;;7.22;3.65;;;7.00;72.50;;;;;;5090779;28;20020;-70
2022/04/12 02:41:59;;;;;;;5.53;3.53;;;6.90;72.50;;;;;;5091102;28;20036;-70
2022/04/12 02:44:25;;;;;;;9.65;3.95;;;7.00;72.90;;;;;;5088343;28;20153;-70
2022/04/12 02:46:50;;;;;;;5.38;3.55;;;6.90;72.90;;;;;;5086438;28;20103;-69
2022/04/12 02:49:16;;;;;;;6.75;3.83;;;6.90;73.00;;;;;;5084456;28;20032;-70
2022/04/12 02:51:41;;;;;;;7.72;4.30;;;6.90;73.00;;;;;;5070566;28;20029;-69
2022/04/12 02:54:07;;;;;;;6.82;4.25;;;6.80;73.30;;;;;;5076871;28;20013;-69
2022/04/12 02:56:32;;;;;;;7.82;4.18;;;6.70;73.40;;;;;;5090681;28;20077;-70
2022/04/12 02:58:58;;;;;;;7.90;4.35;;;6.70;73.90;;;;;;5088961;28;20035;-69
2022/04/12 03:01:23;;;;;;;8.25;3.92;;;6.70;74.10;;;;;;5091006;28;20479;-70
2022/04/12 03:03:49;;;;;;;8.43;4.03;;;6.70;74.20;;;;;;5089251;28;20027;-70
2022/04/12 03:06:14;;;;;;;6.85;4.25;;;6.60;74.40;;;;;;5089216;28;20114;-70
2022/04/12 03:08:40;;;;;;;7.88;4.57;;;6.60;74.70;;;;;;5076840;28;20123;-70
2022/04/12 03:11:05;;;;;;;6.72;4.43;;;6.60;74.80;;;;;;5081512;28;20031;-69
2022/04/12 03:13:31;;;;;;;7.05;3.90;;;6.60;74.90;;;;;;5088557;28;20062;-70
2022/04/12 03:15:59;;;;;;;7.40;4.03;;;6.60;75.10;;;;;;5090474;28;20395;-69
2022/04/12 03:18:25;;;;;;;8.23;3.85;;;6.60;75.30;;;;;;5088074;28;20028;-69
2022/04/12 03:20:51;;;;;;;6.35;4.18;;;6.70;75.40;;;;;;5090398;28;20049;-70
2022/04/12 03:23:17;;;;;;;8.82;4.13;;;6.60;75.40;;;;;;5078389;28;20033;-69
2022/04/12 03:25:43;;;;;;;9.70;4.03;;;6.60;75.40;;;;;;5064047;28;20024;-69
2022/04/12 03:28:09;;;;;;;8.45;4.25;;;6.60;75.60;;;;;;5084949;28;20044;-68
2022/04/12 03:30:34;;;;;;;6.90;3.88;;;6.50;75.70;;;;;;5080302;28;20034;-70
2022/04/12 03:32:59;;;;;;;5.45;4.00;;;6.50;75.70;;;;;;5091393;28;20103;-70
2022/04/12 03:35:25;;;;;;;7.13;4.05;;;6.50;76.00;;;;;;5094136;28;20020;-70
2022/04/12 03:37:50;;;;;;;10.52;4.00;;;6.50;76.30;;;;;;5082465;28;20123;-70
2022/04/12 03:40:16;;;;;;;7.40;3.63;;;6.50;76.50;;;;;;5074034;28;20016;-70
2022/04/12 03:42:42;;;;;;;7.38;4.00;;;6.60;76.70;;;;;;5083918;28;20024;-70
2022/04/12 03:45:08;;;;;;;8.40;4.78;;;6.50;76.70;;;;;;5090838;28;20039;-71
2022/04/12 03:47:33;;;;;;;8.75;4.20;;;6.50;76.80;;;;;;5082128;28;20502;-71
2022/04/12 03:49:59;;;;;;;7.35;4.05;;;6.50;77.00;;;;;;5094240;28;20032;-71
2022/04/12 03:52:24;;;;;;;8.10;4.72;;;6.50;77.10;;;;;;5091986;28;20057;-71
2022/04/12 03:54:50;;;;;;;8.05;4.85;;;6.50;77.30;;;;;;5094112;28;20416;-71
2022/04/12 03:57:17;;;;;;;8.60;4.70;;;6.50;77.20;;;;;;5091144;28;20024;-71
2022/04/12 03:59:42;;;;;;;7.78;4.45;;;6.50;77.20;;;;;;5094339;28;20358;-71
2022/04/12 04:02:08;;;;;;;20.63;4.97;;;6.40;77.30;;;;;;5089278;28;20111;-71
2022/04/12 04:04:33;;;;;;;11.32;4.88;;;6.50;77.40;;;;;;5071794;28;20028;-72
2022/04/12 04:06:59;;;;;;;8.00;4.68;;;6.50;77.40;;;;;;5093547;28;20052;-71
2022/04/12 04:09:24;;;;;;;7.93;4.00;;;6.40;77.50;;;;;;5091329;28;20399;-70
2022/04/12 04:11:50;;;;;;;9.45;4.90;;;6.40;77.60;;;;;;5093761;28;20019;-71
2022/04/12 04:14:15;;;;;;;13.65;6.03;;;6.40;77.60;;;;;;5091517;28;20028;-70
2022/04/12 04:16:41;;;;;;;9.57;5.05;;;6.40;77.80;;;;;;5093362;28;20020;-71
2022/04/12 04:19:09;;;;;;;11.55;5.03;;;6.30;78.00;;;;;;5090830;28;20128;-70
2022/04/12 04:21:38;;;;;;;10.52;5.00;;;6.30;77.90;;;;;;5094053;28;20036;-71
2022/04/12 04:24:04;;;;;;;9.43;4.82;;;6.30;78.10;;;;;;5090249;28;20055;-71
2022/04/12 04:26:30;;;;;;;8.68;4.43;;;6.30;78.30;;;;;;5084194;28;20632;-72
2022/04/12 04:28:56;;;;;;;8.98;4.63;;;6.30;78.20;;;;;;5090807;28;20036;-71
2022/04/12 04:31:21;;;;;;;11.75;5.10;;;6.30;78.30;;;;;;5092897;28;20024;-71
2022/04/12 04:33:47;;;;;;;7.88;4.70;;;6.30;78.50;;;;;;5079394;28;20501;-72
2022/04/12 04:36:12;;;;;;;8.95;4.72;;;6.30;78.50;;;;;;5077396;28;20028;-71
2022/04/12 04:38:38;;;;;;;10.55;4.88;;;6.30;78.50;;;;;;5090149;28;20024;-70
2022/04/12 04:41:03;;;;;;;8.75;4.80;;;6.40;78.60;;;;;;5069215;28;20050;-72
2022/04/12 04:43:29;;;;;;;8.93;4.75;;;6.30;78.50;;;;;;5091073;28;20084;-71
2022/04/12 04:45:55;;;;;;;8.13;4.35;;;6.30;78.60;;;;;;5092579;28;20027;-71
2022/04/12 04:48:20;;;;;;;7.13;4.32;;;6.30;78.90;;;;;;5091181;28;20039;-71
2022/04/12 04:50:46;;;;;;;9.20;4.50;;;6.30;79.00;;;;;;5092882;28;20483;-71
2022/04/12 04:53:12;;;;;;;5.85;4.20;;;6.40;79.00;;;;;;5088844;28;20028;-71
2022/04/12 04:55:42;;;;;;;8.23;4.80;;;6.30;78.90;;;;;;5093247;28;20501;-71
2022/04/12 04:58:08;;;;;;;11.73;5.50;;;6.40;79.20;;;;;;5089829;28;20127;-71
2022/04/12 05:00:34;;;;;;;9.18;4.97;;;6.40;79.00;;;;;;5092857;28;20055;-71
2022/04/12 05:03:01;;;;;;;8.40;4.78;;;6.50;79.10;;;;;;5072350;28;20028;-71
2022/04/12 05:05:27;;;;;;;8.63;5.13;;;6.50;79.10;;;;;;5092762;28;20432;-71
2022/04/12 05:07:54;;;;;;;9.52;4.90;;;6.50;79.20;;;;;;5084998;28;20075;-71
2022/04/12 05:10:22;;;;;;;7.13;4.75;;;6.60;79.30;;;;;;5078162;28;20024;-71
2022/04/12 05:12:48;;;;;;;9.00;5.40;;;6.60;78.90;;;;;;5076466;28;20034;-71
2022/04/12 05:15:14;;;;;;;10.25;6.32;;;6.60;79.00;;;;;;5092309;28;20028;-71
2022/04/12 05:17:39;;;;;;;10.50;5.60;;;6.60;79.00;;;;;;5090250;28;20316;-72
2022/04/12 05:20:06;;;;;;;12.95;6.43;;;6.70;79.10;;;;;;5092415;28;20112;-71
2022/04/12 05:22:32;;;;;;;8.68;5.28;;;6.70;78.90;;;;;;5089456;28;20103;-71
2022/04/12 05:24:57;;;;;;;8.95;5.57;;;6.70;78.80;;;;;;5092586;28;20107;-71
2022/04/12 05:27:23;;;;;;;11.27;6.05;;;6.70;78.70;;;;;;5080213;28;20028;-71
2022/04/12 05:29:49;;;;;;;9.93;5.85;;;6.70;78.60;;;;;;5074440;28;20036;-71
2022/04/12 05:32:14;;;;;;;13.25;5.90;;;6.70;78.60;;;;;;5085048;28;20209;-71
2022/04/12 05:34:40;;;;;;;10.48;6.10;;;6.70;78.60;;;;;;5074192;28;20024;-73
2022/04/12 05:37:06;;;;;;;10.23;6.32;;;6.70;78.70;;;;;;5090308;28;20028;-73
2022/04/12 05:39:32;;;;;;;12.52;5.63;;;6.70;78.60;;;;;;5090768;28;20035;-74
2022/04/12 05:42:01;;;;;;;8.93;5.80;;;6.80;78.40;;;;;;5079169;28;20028;-72
2022/04/12 05:44:33;;;;;;;9.65;5.50;;;6.80;78.50;;;;;;5089549;28;20070;-73
2022/04/12 05:47:03;;;;;;;8.45;5.20;;;6.80;78.40;;;;;;5072685;28;20433;-73
2022/04/12 05:49:29;;;;;;;10.38;5.18;;;6.90;78.40;;;;;;5089069;28;20032;-73
2022/04/12 05:51:55;;;;;;;9.18;5.28;;;6.90;78.20;;;;;;5092120;28;20026;-73
2022/04/12 05:54:22;;;;;;;9.23;5.03;;;6.90;78.40;;;;;;5088746;28;20032;-73
2022/04/12 05:56:48;;;;;;;10.05;5.35;;;7.00;78.40;;;;;;5091562;28;20107;-72
2022/04/12 05:59:13;;;;;;;8.65;5.28;;;7.00;78.20;;;;;;5089308;28;20107;-72
2022/04/12 06:01:39;;;;;;;12.98;5.53;;;7.20;78.20;;;;;;5066895;28;20163;-72
2022/04/12 06:04:08;;;;;;;8.20;5.45;;;7.20;78.20;;;;;;5075667;28;20384;-67
2022/04/12 06:06:34;;;;;;;8.90;5.00;;;7.30;78.10;;;;;;5068078;28;20044;-67
2022/04/12 06:09:00;;;;;;;11.98;5.88;;;7.30;78.20;;;;;;5084262;28;20044;-66
2022/04/12 06:11:26;;;;;;;10.77;5.80;;;7.30;77.90;;;;;;5064031;28;20012;-67
2022/04/12 06:13:51;;;;;;;9.30;5.32;;;7.40;77.60;;;;;;5086785;28;20035;-67
2022/04/12 06:16:17;;;;;;;8.38;5.18;;;7.40;77.60;;;;;;5083199;28;20103;-69
2022/04/12 06:18:43;;;;;;;8.00;5.35;;;7.50;77.50;;;;;;5085923;28;20028;-69
2022/04/12 06:21:08;;;;;;;13.95;6.20;;;7.60;77.60;;;;;;5080420;28;20025;-68
2022/04/12 06:23:34;;;;;;;10.57;6.03;;;7.60;77.20;;;;;;5083526;28;20031;-67
2022/04/12 06:25:59;;;;;;;10.57;5.38;;;7.60;76.90;;;;;;5090671;28;20020;-67
2022/04/12 06:28:25;;;;;;;10.45;5.05;;;7.70;76.90;;;;;;5084286;28;20094;-67
2022/04/12 06:30:51;;;;;;;11.02;6.00;;;7.80;77.00;;;;;;5089837;28;20103;-67
2022/04/12 06:33:17;;;;;;;12.00;5.50;;;7.90;77.00;;;;;;5086755;28;20050;-69
2022/04/12 06:35:42;;;;;;;12.15;4.88;;;8.00;76.80;;;;;;5089916;28;20503;-70
2022/04/12 06:38:09;;;;;;;9.77;4.70;;;8.00;76.70;;;;;;5085906;28;20027;-68
2022/04/12 06:40:35;;;;;;;10.98;5.30;;;8.10;76.70;;;;;;5089556;28;20099;-70
2022/04/12 06:43:01;;;;;;;12.05;4.82;;;8.20;76.70;;;;;;5084990;28;20016;-70
2022/04/12 06:45:27;;;;;;;11.77;5.07;;;8.30;77.00;;;;;;5089912;28;20142;-69
2022/04/12 06:47:58;;;;;;;10.10;4.60;;;8.30;75.90;;;;;;5084793;28;20064;-69
2022/04/12 06:50:24;;;;;;;12.60;4.88;;;8.40;75.70;;;;;;5089049;28;20032;-69
2022/04/12 06:52:51;;;;;;;7.80;5.20;;;8.50;75.40;;;;;;5086513;28;20559;-70
2022/04/12 06:55:16;;;;;;;8.75;5.25;;;8.50;75.10;;;;;;5090357;28;20040;-70
2022/04/12 06:57:42;;;;;;;9.10;4.68;;;8.60;74.60;;;;;;5086898;28;20024;-70
2022/04/12 07:00:09;;;;;;;8.50;5.20;;;8.60;74.50;;;;;;5086352;28;20032;-70
2022/04/12 07:02:35;;;;;;;9.65;4.72;;;8.70;74.40;;;;;;5083927;28;20339;-68
2022/04/12 07:05:02;;;;;;;7.78;4.63;;;8.70;74.60;;;;;;5088558;28;20093;-70
2022/04/12 07:07:27;;;;;;;9.13;4.80;;;8.90;74.60;;;;;;5088375;28;20474;-69
2022/04/12 07:09:54;;;;;;;9.30;4.82;;;8.90;74.70;;;;;;5081956;28;20107;-69
2022/04/12 07:12:20;;;;;;;10.75;4.60;;;9.00;74.30;;;;;;5084790;28;20475;-71
2022/04/12 07:14:45;;;;;;;11.32;5.18;;;9.10;73.60;;;;;;5077133;28;20032;-70
2022/04/12 07:17:11;;;;;;;9.73;4.75;;;9.20;73.40;;;;;;5086857;28;20020;-70
2022/04/12 07:19:36;;;;;;;8.30;4.28;;;9.30;73.90;;;;;;5089654;28;20361;-70
2022/04/12 07:22:02;;;;;;;10.82;5.60;;;9.40;74.00;;;;;;5092395;28;20111;-71
2022/04/12 07:24:27;;;;;;;8.80;4.15;;;9.40;73.20;;;;;;5087183;28;20395;-72
2022/04/12 07:26:53;;;;;;;8.63;4.53;;;9.50;72.90;;;;;;5092849;28;20227;-72
2022/04/12 07:29:18;;;;;;;8.50;4.30;;;9.60;72.80;;;;;;5090664;28;20750;-72
2022/04/12 07:31:44;;;;;;;12.32;4.03;;;9.80;72.60;;;;;;5083840;28;20036;-71
2022/04/12 07:34:10;;;;;;;12.05;4.80;;;9.80;72.60;;;;;;5082118;28;20028;-72
2022/04/12 07:36:39;;;;;;;9.57;5.05;;;10.00;72.40;;;;;;5085475;28;20034;-71
2022/04/12 07:39:08;;;;;;;11.60;4.18;;;10.00;71.50;;;;;;5089778;28;20024;-70
2022/04/12 07:41:33;;;;;;;7.35;4.25;;;10.10;71.00;;;;;;5092692;28;20131;-71
2022/04/12 07:43:59;;;;;;;7.85;4.40;;;10.20;71.30;;;;;;5090407;28;20115;-71
2022/04/12 07:46:24;;;;;;;8.52;4.38;;;10.40;70.90;;;;;;5088213;28;20050;-71
2022/04/12 07:48:50;;;;;;;8.35;4.03;;;10.40;70.70;;;;;;5090303;28;20028;-72
2022/04/12 07:51:16;;;;;;;9.00;4.25;;;10.50;69.70;;;;;;5088086;28;20497;-71
2022/04/12 07:53:41;;;;;;;7.10;3.58;;;10.60;69.40;;;;;;5083611;28;20059;-71
2022/04/12 07:56:07;;;;;;;9.27;4.13;;;10.70;69.10;;;;;;5093074;28;20177;-69
2022/04/12 07:58:32;;;;;;;7.50;3.95;;;10.80;68.90;;;;;;5070979;28;20024;-71
2022/04/12 08:00:58;;;;;;;9.77;4.97;;;10.90;68.50;;;;;;5072805;28;20306;-70
2022/04/12 08:03:23;;;;;;;7.47;3.70;;;11.00;68.10;;;;;;5094787;28;20031;-71
2022/04/12 08:05:49;;;;;;;9.32;4.25;;;11.10;68.00;;;;;;5114454;28;20024;-71
2022/04/12 08:08:15;;;;;;;6.32;4.00;;;11.20;67.50;;;;;;5101641;28;20040;-71
2022/04/12 08:10:40;;;;;;;5.85;3.60;;;11.30;66.80;;;;;;5086388;28;20029;-70
2022/04/12 08:13:06;;;;;;;6.15;3.58;;;11.40;66.60;;;;;;5084614;28;20048;-70
2022/04/12 08:15:31;;;;;;;8.35;3.70;;;11.50;66.40;;;;;;5056481;28;20059;-70
2022/04/12 08:17:57;;;;;;;8.77;4.13;;;11.70;66.00;;;;;;5078147;28;20530;-70
2022/04/12 08:20:22;;;;;;;6.45;3.65;;;11.70;65.20;;;;;;5093345;28;20032;-71
2022/04/12 08:22:48;;;;;;;9.00;3.88;;;11.80;65.10;;;;;;5093051;28;20042;-70
2022/04/12 08:25:14;;;;;;;5.70;3.63;;;11.90;64.40;;;;;;5093236;28;20036;-70
2022/04/12 08:27:40;;;;;;;7.32;3.83;;;12.00;63.50;;;;;;5097133;28;20532;-70
2022/04/12 08:30:09;;;;;;;5.57;3.17;;;12.10;63.20;;;;;;5078444;28;20487;-70
2022/04/12 08:32:35;;;;;;;8.52;4.07;;;12.20;62.90;;;;;;5090783;28;20028;-70
2022/04/12 08:35:00;;;;;;;8.45;3.88;;;12.30;62.30;;;;;;5074976;28;20107;-71
2022/04/12 08:37:26;;;;;;;6.72;3.80;;;12.40;61.70;;;;;;5073888;28;20111;-69
2022/04/12 08:39:52;;;;;;;11.30;4.15;;;12.60;61.20;;;;;;5075063;28;20483;-71
2022/04/12 08:42:17;;;;;;;6.35;3.85;;;12.70;61.30;;;;;;5092149;28;20024;-71
2022/04/12 08:44:45;;;;;;;8.18;4.05;;;12.80;60.10;;;;;;5066286;28;20025;-71
2022/04/12 08:47:14;;;;;;;6.47;3.95;;;12.90;60.80;;;;;;5072437;28;20020;-71
2022/04/12 08:49:40;;;;;;;8.93;3.80;;;13.10;61.20;;;;;;5092462;28;20387;-71
2022/04/12 08:52:11;;;;;;;6.90;3.85;;;13.20;59.10;;;;;;5092227;28;20050;-70
2022/04/12 08:54:37;;;;;;;6.93;3.60;;;13.40;59.40;;;;;;5091219;28;20118;-70
2022/04/12 08:57:04;;;;;;;6.63;3.35;;;13.50;60.20;;;;;;5073791;28;20052;-71
2022/04/12 08:59:29;;;;;;;6.50;3.78;;;13.70;59.40;;;;;;5086514;28;20032;-70
2022/04/12 09:01:56;;;;;;;7.22;3.92;;;13.80;57.90;;;;;;5060240;28;20021;-70
2022/04/12 09:04:22;;;;;;;6.38;3.25;;;13.90;56.50;;;;;;5072926;28;20449;-70
2022/04/12 09:06:48;;;;;;;5.63;3.30;;;13.90;55.90;;;;;;5071798;28;20115;-71
2022/04/12 09:09:18;;;;;;;5.50;3.95;;;13.90;55.90;;;;;;5072136;28;20042;-71
2022/04/12 09:11:54;;;;;;;6.95;3.63;;;14.00;56.10;;;;;;5071674;28;20025;-71
2022/04/12 09:14:19;;;;;;;6.93;3.47;;;14.20;56.60;;;;;;5084678;28;20043;-71
2022/04/12 09:16:46;;;;;;;7.20;3.88;;;14.30;56.60;;;;;;5083432;28;20114;-71
2022/04/12 09:19:11;;;;;;;5.60;3.35;;;14.40;55.50;;;;;;5090929;28;20024;-71
2022/04/12 09:21:46;;;;;;;6.97;3.63;;;14.50;55.60;;;;;;5091204;28;20555;-71
2022/04/12 09:24:19;;;;;;;6.72;3.50;;;14.70;55.60;;;;;;5091033;28;20024;-71
2022/04/12 09:26:57;;;;;;;6.95;3.83;;;14.80;55.80;;;;;;5082897;28;20513;-71
2022/04/12 09:29:27;;;;;;;6.88;4.47;;;15.00;54.50;;;;;;5085832;28;20051;-71
2022/04/12 09:31:59;;;;;;;8.38;4.00;;;15.00;53.70;;;;;;5088528;28;20505;-71
2022/04/12 09:34:25;;;;;;;7.18;4.00;;;15.10;53.50;;;;;;5078860;28;20035;-71
2022/04/12 09:36:51;;;;;;;9.45;5.60;;;15.20;53.70;;;;;;5091141;28;20024;-71
2022/04/12 09:39:20;;;;;;;5.88;4.25;;;15.30;53.60;;;;;;5091782;28;20106;-72
2022/04/12 09:41:49;;;;;;;5.55;3.83;;;15.40;53.20;;;;;;5092008;28;20028;-71
2022/04/12 09:44:19;;;;;;;5.03;3.50;;;15.40;51.90;;;;;;5091464;28;20032;-71
2022/04/12 09:46:45;;;;;;;6.63;4.00;;;15.40;51.90;;;;;;5092051;28;20039;-73
2022/04/12 09:49:11;;;;;;;5.47;3.80;;;15.50;51.60;;;;;;5088846;28;20097;-70
2022/04/12 09:51:38;;;;;;;8.07;3.80;;;15.50;50.70;;;;;;5080834;28;20028;-71
2022/04/12 09:54:06;;;;;;;7.38;4.50;;;15.50;50.70;;;;;;5090648;28;20074;-70
2022/04/12 09:56:33;;;;;;;5.03;3.67;;;15.50;51.30;;;;;;5085121;28;20081;-70
2022/04/12 09:59:01;;;;;;;5.68;3.83;;;15.60;50.20;;;;;;5091678;28;20046;-69
2022/04/12 10:01:27;;;;;;;5.80;4.03;;;15.60;49.80;;;;;;5091838;28;20020;-70
2022/04/12 10:03:56;;;;;;;6.32;4.35;;;15.60;49.30;;;;;;5091928;28;20498;-71
2022/04/12 10:06:24;;;;;;;5.40;4.00;;;15.60;48.80;;;;;;5091433;28;20028;-71
2022/04/12 10:08:58;;;;;;;6.35;3.78;;;15.60;49.10;;;;;;5075783;28;20048;-71
2022/04/12 10:11:24;;;;;;;6.88;4.60;;;15.70;49.80;;;;;;5078138;28;20032;-71
2022/04/12 10:13:51;;;;;;;6.38;4.18;;;15.70;49.40;;;;;;5087626;28;20064;-70
2022/04/12 10:16:19;;;;;;;7.40;4.65;;;15.80;49.20;;;;;;5087945;28;20039;-70
2022/04/12 10:18:45;;;;;;;7.07;3.92;;;15.90;49.00;;;;;;5090239;28;20036;-70
2022/04/12 10:21:12;;;;;;;8.52;4.35;;;15.80;47.90;;;;;;5091746;28;20020;-70
2022/04/12 10:23:41;;;;;;;8.18;4.70;;;15.80;47.50;;;;;;5088838;28;20028;-70
2022/04/12 10:26:08;;;;;;;6.13;4.18;;;15.80;48.10;;;;;;5090966;28;20270;-69
2022/04/12 10:28:34;;;;;;;7.25;4.07;;;15.80;48.40;;;;;;5097534;28;20070;-70
2022/04/12 10:31:17;;;;;;;7.90;3.92;;;15.80;48.10;;;;;;5090310;28;20024;-71
2022/04/12 10:33:51;;;;;;;9.43;4.00;;;15.90;49.60;;;;;;5077238;28;20361;-71
2022/04/12 10:36:16;;;;;;;6.82;3.78;;;16.00;51.20;;;;;;5086287;28;20396;-70
2022/04/12 10:38:43;;;;;;;6.18;4.35;;;16.10;50.00;;;;;;5088567;28;20024;-70
2022/04/12 10:41:23;;;;;;;7.07;4.50;;;16.30;50.10;;;;;;5093542;28;20530;-69
2022/04/12 10:43:58;;;;;;;5.55;4.13;;;16.40;48.90;;;;;;5090187;28;20031;-70
2022/04/12 10:46:26;;;;;;;8.35;4.32;;;16.40;48.40;;;;;;5095496;28;20111;-69
2022/04/12 10:48:56;;;;;;;8.13;3.80;;;16.50;48.10;;;;;;5094369;28;20059;-69
2022/04/12 10:51:37;;;;;;;6.30;3.85;;;16.50;49.00;;;;;;5095161;28;20020;-71
2022/04/12 10:54:04;;;;;;;6.60;4.00;;;16.60;48.40;;;;;;5073091;28;20103;-69
2022/04/12 10:56:29;;;;;;;7.38;4.43;;;16.70;48.20;;;;;;5075133;28;20051;-70
2022/04/12 10:58:55;;;;;;;8.68;5.03;;;16.70;48.10;;;;;;5076542;28;20126;-70
2022/04/12 11:01:32;;;;;;;9.07;4.65;;;16.80;47.90;;;;;;5090111;28;20107;-70
2022/04/12 11:04:03;;;;;;;6.55;4.55;;;16.80;47.90;;;;;;5074457;28;20027;-70
2022/04/12 11:06:32;;;;;;;6.07;4.30;;;16.90;47.90;;;;;;5092817;28;20379;-69
2022/04/12 11:09:00;;;;;;;7.00;4.28;;;16.90;47.80;;;;;;5092685;28;20040;-70
2022/04/12 11:11:41;;;;;;;7.22;4.28;;;17.00;48.20;;;;;;5092185;28;20031;-70
2022/04/12 11:14:36;;;;;;;5.82;4.03;;;17.00;47.70;;;;;;5094030;28;20115;-70
2022/04/12 11:17:14;;;;;;;5.65;4.15;;;17.00;46.20;;;;;;5075000;28;20024;-70
2022/04/12 11:19:49;;;;;;;6.95;3.92;;;17.00;46.90;;;;;;5091079;28;20103;-70
2022/04/12 11:22:16;;;;;;;5.90;4.20;;;17.00;46.70;;;;;;5094159;28;20038;-71
2022/04/12 11:25:16;;;;;;;6.40;4.63;;;17.10;46.30;;;;;;5074406;28;20038;-69
2022/04/12 11:27:41;;;;;;;6.15;4.13;;;17.10;45.70;;;;;;5084099;28;20020;-69
2022/04/12 11:30:12;;;;;;;7.88;4.60;;;17.10;46.30;;;;;;5083657;28;20365;-70
2022/04/12 11:32:38;;;;;;;6.25;4.20;;;17.20;46.70;;;;;;5086356;28;20024;-70
2022/04/12 11:35:04;;;;;;;5.95;4.05;;;17.30;46.80;;;;;;5085875;28;20065;-70
2022/04/12 11:37:30;;;;;;;5.60;3.38;;;17.40;46.10;;;;;;5074888;28;20028;-70
2022/04/12 11:39:56;;;;;;;7.15;4.30;;;17.30;45.30;;;;;;5094407;28;20107;-70
2022/04/12 11:42:21;;;;;;;7.40;4.20;;;17.30;44.90;;;;;;5094181;28;20202;-70
2022/04/12 11:44:52;;;;;;;7.43;4.30;;;17.20;44.40;;;;;;5094067;28;20024;-70
2022/04/12 11:47:17;;;;;;;5.63;4.07;;;17.10;44.50;;;;;;5092202;28;20507;-69
2022/04/12 11:49:43;;;;;;;6.65;4.30;;;17.10;44.70;;;;;;5093961;28;20069;-69
2022/04/12 11:52:11;;;;;;;6.50;3.20;;;17.10;44.30;;;;;;5091749;28;20461;-69
2022/04/12 11:54:39;;;;;;;7.30;4.78;;;17.00;44.50;;;;;;5079758;28;20573;-70
2022/04/12 11:57:07;;;;;;;4.80;3.90;;;17.10;44.60;;;;;;5082673;28;20085;-70
2022/04/12 11:59:36;;;;;;;6.65;3.88;;;17.20;45.00;;;;;;5075399;28;20050;-70
2022/04/12 12:02:03;;;;;;;7.47;3.95;;;17.30;45.10;;;;;;5089732;28;20127;-70
2022/04/12 12:04:31;;;;;;;5.57;3.78;;;17.40;44.40;;;;;;5086642;28;20029;-70
2022/04/12 12:07:05;;;;;;;5.93;3.63;;;17.40;43.90;;;;;;5072203;28;20087;-70
2022/04/12 12:09:32;;;;;;;5.10;3.50;;;17.40;43.70;;;;;;5093125;28;20039;-70
2022/04/12 12:12:00;;;;;;;6.15;3.53;;;17.40;44.60;;;;;;5092348;28;20028;-69
2022/04/12 12:14:27;;;;;;;10.00;4.05;;;17.40;44.30;;;;;;5091606;28;20040;-69
2022/04/12 12:17:12;;;;;;;6.22;3.80;;;17.50;43.90;;;;;;5093873;28;20028;-70
2022/04/12 12:19:39;;;;;;;7.22;3.83;;;17.60;43.50;;;;;;5073518;28;20040;-70
2022/04/12 12:22:11;;;;;;;6.75;3.97;;;17.60;43.80;;;;;;5054635;28;20029;-70
2022/04/12 12:24:56;;;;;;;5.35;3.55;;;17.60;42.80;;;;;;5092870;28;20028;-70
2022/04/12 12:27:28;;;;;;;;;;;17.60;43.20;;;;;;5084590;28;20025;-69
2022/04/12 12:30:00;;;;;;;7.03;4.03;;;17.60;44.20;;;;;;5072904;28;20011;-70
2022/04/12 12:32:29;;;;;;;6.68;3.75;;;17.60;43.30;;;;;;5074576;28;20546;-70
2022/04/12 12:35:01;;;;;;;6.13;3.58;;;17.60;43.40;;;;;;5091984;28;20036;-69
2022/04/12 12:37:27;;;;;;;6.20;3.85;;;17.60;43.50;;;;;;5072297;28;20028;-71
2022/04/12 12:39:52;;;;;;;9.50;3.33;;;17.60;43.50;;;;;;5093107;28;20035;-70
2022/04/12 12:42:20;;;;;;;5.55;3.90;;;17.70;43.70;;;;;;5083931;28;20020;-70
2022/04/12 12:44:46;;;;;;;6.40;3.88;;;17.70;43.90;;;;;;5081894;28;20024;-70
2022/04/12 12:47:11;;;;;;;5.90;3.70;;;17.80;43.60;;;;;;5091242;28;20495;-70
2022/04/12 12:49:39;;;;;;;5.57;3.17;;;17.80;43.20;;;;;;5092669;28;20027;-70
2022/04/12 12:52:09;;;;;;;5.88;3.35;;;17.90;42.70;;;;;;5073792;28;20408;-69
2022/04/12 12:54:36;;;;;;;4.13;3.10;;;17.90;42.80;;;;;;5092480;28;20487;-69